createdAt,value
2023-02-02T00:01:01.817Z,97683.58
2023-02-02T00:03:28.653Z,97683.52
2023-02-02T00:05:55.539Z,97680.75
2023-02-02T00:08:22.659Z,97686.98
2023-02-02T00:10:50.829Z,97683.66
2023-02-02T00:13:18.397Z,97680.48
2023-02-02T00:15:45.789Z,97671.54
2023-02-02T00:18:13.261Z,97687.53
2023-02-02T00:20:40.625Z,97693.34
2023-02-02T00:23:08.257Z,97690.42
2023-02-02T00:25:35.512Z,97689.21
2023-02-02T00:28:02.605Z,97687.55
2023-02-02T00:30:29.468Z,97694.73
2023-02-02T00:32:56.370Z,97692.92
2023-02-02T00:35:24.893Z,97687.97
2023-02-02T00:37:52.432Z,97692.71
2023-02-02T00:40:19.290Z,97698.67
2023-02-02T00:42:50.516Z,97696.87
2023-02-02T00:45:17.393Z,97698.33
2023-02-02T00:47:48.053Z,97695.84
2023-02-02T00:50:21.199Z,97696.86
2023-02-02T00:52:49.184Z,97706.52
2023-02-02T00:55:17.365Z,97701.92
2023-02-02T00:57:45.373Z,97705.43
2023-02-02T01:00:18.317Z,97710.41
2023-02-02T01:02:45.490Z,97706.10
2023-02-02T01:05:13.707Z,97706.77
2023-02-02T01:07:41.401Z,97711.27
2023-02-02T01:10:13.075Z,97705.31
2023-02-02T01:12:40.257Z,97709.32
2023-02-02T01:15:08.187Z,97709.60
2023-02-02T01:17:36.521Z,97709.68
2023-02-02T01:20:04.639Z,97711.83
2023-02-02T01:22:33.862Z,97713.66
2023-02-02T01:25:01.345Z,97710.64
2023-02-02T01:27:28.195Z,97715.52
2023-02-02T01:29:55.115Z,97719.42
2023-02-02T01:32:21.965Z,97716.42
2023-02-02T01:34:48.940Z,97715.95
2023-02-02T01:37:15.823Z,97716.05
2023-02-02T01:39:42.665Z,97720.79
2023-02-02T01:42:15.543Z,97724.15
2023-02-02T01:45:06.481Z,97724.27
2023-02-02T01:47:41.505Z,97730.20
2023-02-02T01:50:11.103Z,97730.93
2023-02-02T01:52:38.929Z,97733.08
2023-02-02T01:55:11.684Z,97734.45
2023-02-02T01:57:43.796Z,97736.33
2023-02-02T02:00:14.759Z,97736.05
2023-02-02T02:02:48.462Z,97735.04
2023-02-02T02:05:21.550Z,97735.55
2023-02-02T02:07:53.472Z,97738.94
2023-02-02T02:10:20.286Z,97740.59
2023-02-02T02:12:48.805Z,97746.13
2023-02-02T02:15:31.064Z,97750.44
2023-02-02T02:18:29.307Z,97755.98
2023-02-02T02:21:33.743Z,97755.80
2023-02-02T02:24:30.705Z,97757.80
2023-02-02T02:27:29.505Z,97760.56
2023-02-02T02:30:04.536Z,97766.55
2023-02-02T02:32:50.590Z,97765.15
2023-02-02T02:35:17.401Z,97766.73
2023-02-02T02:37:49.448Z,97768.44
2023-02-02T02:40:25.840Z,97768.99
2023-02-02T02:42:58.099Z,97772.64
2023-02-02T02:45:28.083Z,97773.34
2023-02-02T02:47:56.279Z,97778.39
2023-02-02T02:50:24.005Z,97772.85
2023-02-02T02:53:00.916Z,97774.59
2023-02-02T02:55:37.242Z,97779.63
2023-02-02T02:58:13.949Z,97778.42
2023-02-02T03:00:57.806Z,97784.41
2023-02-02T03:03:41.975Z,97785.25
2023-02-02T03:06:28.788Z,97787.88
2023-02-02T03:09:01.667Z,97789.20
2023-02-02T03:11:29.245Z,97787.45
2023-02-02T03:13:56.721Z,97789.42
2023-02-02T03:16:23.707Z,97789.21
2023-02-02T03:18:50.537Z,97795.53
2023-02-02T03:21:17.353Z,97794.99
2023-02-02T03:23:44.088Z,97799.08
2023-02-02T03:26:11.037Z,97804.61
2023-02-02T03:28:37.812Z,97798.55
2023-02-02T03:31:06.850Z,97799.78
2023-02-02T03:33:37.288Z,97799.63
2023-02-02T03:36:04.189Z,97798.77
2023-02-02T03:38:31.052Z,97803.17
2023-02-02T03:40:57.981Z,97799.34
2023-02-02T03:43:24.992Z,97801.11
2023-02-02T03:46:04.419Z,97800.43
2023-02-02T03:48:32.139Z,97804.70
2023-02-02T03:50:58.941Z,97797.25
2023-02-02T03:53:25.731Z,97793.13
2023-02-02T03:55:52.469Z,97798.05
2023-02-02T03:58:22.367Z,97792.13
2023-02-02T04:00:49.849Z,97795.16
2023-02-02T04:03:16.707Z,97793.63
2023-02-02T04:05:43.528Z,97794.88
2023-02-02T04:08:10.248Z,97793.30
2023-02-02T04:10:37.245Z,97790.23
2023-02-02T04:13:03.951Z,97786.62
2023-02-02T04:15:31.787Z,97793.75
2023-02-02T04:17:58.669Z,97790.50
2023-02-02T04:20:25.381Z,97791.51
2023-02-02T04:22:54.296Z,97797.23
2023-02-02T04:25:21.594Z,97791.98
2023-02-02T04:27:48.837Z,97791.92
2023-02-02T04:30:15.731Z,97786.95
2023-02-02T04:32:44.820Z,97785.63
2023-02-02T04:35:11.587Z,97789.31
2023-02-02T04:37:38.513Z,97789.48
2023-02-02T04:40:05.973Z,97789.14
2023-02-02T04:42:34.469Z,97787.83
2023-02-02T04:45:01.322Z,97785.88
2023-02-02T04:47:28.031Z,97785.67
2023-02-02T04:49:54.771Z,97787.67
2023-02-02T04:52:21.518Z,97788.86
2023-02-02T04:54:48.193Z,97789.21
2023-02-02T04:57:14.960Z,97788.30
2023-02-02T04:59:42.554Z,97788.77
2023-02-02T05:02:09.553Z,97787.34
2023-02-02T05:04:36.299Z,97787.53
2023-02-02T05:07:03.079Z,97788.81
2023-02-02T05:09:30.003Z,97788.30
2023-02-02T05:11:56.712Z,97788.02
2023-02-02T05:14:23.685Z,97791.65
2023-02-02T05:16:50.520Z,97791.95
2023-02-02T05:19:17.319Z,97792.98
2023-02-02T05:21:46.061Z,97791.48
2023-02-02T05:24:12.816Z,97786.43
2023-02-02T05:26:39.669Z,97785.28
2023-02-02T05:29:09.212Z,97780.53
2023-02-02T05:31:36.694Z,97785.98
2023-02-02T05:34:03.685Z,97783.58
2023-02-02T05:36:30.779Z,97780.88
2023-02-02T05:38:57.896Z,97776.84
2023-02-02T05:41:24.788Z,97779.55
2023-02-02T05:43:51.527Z,97779.64
2023-02-02T05:46:18.294Z,97777.20
2023-02-02T05:48:45.028Z,97778.33
2023-02-02T05:51:20.113Z,97778.63
2023-02-02T05:53:47.259Z,97783.55
2023-02-02T05:56:15.770Z,97785.10
2023-02-02T05:58:44.975Z,97788.48
2023-02-02T06:01:11.778Z,97787.43
2023-02-02T06:03:38.625Z,97785.65
2023-02-02T06:06:07.061Z,97787.20
2023-02-02T06:08:34.111Z,97785.59
2023-02-02T06:11:08.258Z,97784.92
2023-02-02T06:13:35.557Z,97784.98
2023-02-02T06:16:02.527Z,97786.12
2023-02-02T06:18:29.419Z,97780.58
2023-02-02T06:20:57.907Z,97785.28
2023-02-02T06:23:24.971Z,97787.95
2023-02-02T06:25:51.762Z,97787.44
2023-02-02T06:28:20.008Z,97787.13
2023-02-02T06:30:47.777Z,97781.81
2023-02-02T06:33:14.575Z,97782.17
2023-02-02T06:35:41.338Z,97776.41
2023-02-02T06:38:08.157Z,97775.78
2023-02-02T06:40:35.127Z,97776.59
2023-02-02T06:43:03.608Z,97774.23
2023-02-02T06:45:31.176Z,97780.84
2023-02-02T06:48:04.117Z,97782.42
2023-02-02T06:50:32.167Z,97783.95
2023-02-02T06:52:58.881Z,97784.59
2023-02-02T06:55:26.014Z,97784.69
2023-02-02T06:57:57.831Z,97791.85
2023-02-02T07:00:25.414Z,97793.84
2023-02-02T07:02:52.243Z,97793.23
2023-02-02T07:05:21.510Z,97790.38
2023-02-02T07:07:48.383Z,97780.59
2023-02-02T07:11:12.016Z,97779.48
2023-02-02T07:13:01.982Z,97775.30
2023-02-02T07:15:28.673Z,97774.88
2023-02-02T07:17:55.406Z,97771.43
2023-02-02T07:20:22.135Z,97772.45
2023-02-02T07:22:49.337Z,97768.39
2023-02-02T07:25:16.320Z,97762.13
2023-02-02T07:27:43.105Z,97767.05
2023-02-02T07:30:10.786Z,97773.20
2023-02-02T07:32:37.675Z,97768.19
2023-02-02T07:35:05.058Z,97769.77
2023-02-02T07:37:31.896Z,97771.17
2023-02-02T07:39:58.633Z,97761.31
2023-02-02T07:42:25.471Z,97767.86
2023-02-02T07:44:54.426Z,97762.59
2023-02-02T07:47:22.333Z,97761.54
2023-02-02T07:49:49.052Z,97764.08
2023-02-02T07:52:16.201Z,97760.20
2023-02-02T07:54:42.902Z,97760.83
2023-02-02T07:57:09.764Z,97759.06
2023-02-02T07:59:36.618Z,97756.34
2023-02-02T08:02:03.642Z,97764.99
2023-02-02T08:04:30.679Z,97769.02
2023-02-02T08:06:57.419Z,97767.04
2023-02-02T08:09:24.190Z,97764.96
2023-02-02T08:11:50.988Z,97766.37
2023-02-02T08:14:17.984Z,97761.64
2023-02-02T08:16:44.854Z,97766.52
2023-02-02T08:19:11.980Z,97763.76
2023-02-02T08:21:38.866Z,97764.11
2023-02-02T08:24:05.918Z,97769.83
2023-02-02T08:26:33.074Z,97767.36
2023-02-02T08:29:03.244Z,97771.11
2023-02-02T08:31:34.215Z,97772.28
2023-02-02T08:34:01.340Z,97769.71
2023-02-02T08:36:30.307Z,97775.19
2023-02-02T08:39:03.294Z,97777.38
2023-02-02T08:41:30.643Z,97777.96
2023-02-02T08:43:57.417Z,97780.28
2023-02-02T08:46:24.803Z,97785.11
2023-02-02T08:48:51.584Z,97786.98
2023-02-02T08:51:19.750Z,97785.83
2023-02-02T08:53:48.680Z,97791.72
2023-02-02T08:56:18.778Z,97792.58
2023-02-02T08:58:48.154Z,97794.55
2023-02-02T09:01:18.264Z,97801.33
2023-02-02T09:03:45.797Z,97799.31
2023-02-02T09:06:16.064Z,97804.21
2023-02-02T09:08:43.297Z,97804.79
2023-02-02T09:11:13.508Z,97803.48
2023-02-02T09:13:41.854Z,97813.46
2023-02-02T09:16:10.530Z,97812.04
2023-02-02T09:18:37.367Z,97817.29
2023-02-02T09:21:07.543Z,97820.77
2023-02-02T09:23:38.328Z,97819.61
2023-02-02T09:26:14.554Z,97823.94
2023-02-02T09:28:43.731Z,97825.63
2023-02-02T09:31:10.729Z,97831.41
2023-02-02T09:33:38.714Z,97832.23
2023-02-02T09:36:07.783Z,97836.48
2023-02-02T09:38:35.105Z,97834.29
2023-02-02T09:41:21.266Z,97829.84
2023-02-02T09:43:53.509Z,97839.33
2023-02-02T09:46:35.304Z,97838.66
2023-02-02T09:49:08.033Z,97851.22
2023-02-02T09:51:41.849Z,97859.12
2023-02-02T09:54:17.718Z,97857.86
2023-02-02T09:56:50.779Z,97855.61
2023-02-02T09:59:24.615Z,97861.36
2023-02-02T10:01:56.310Z,97860.05
2023-02-02T10:04:32.342Z,97865.02
2023-02-02T10:07:08.234Z,97864.96
2023-02-02T10:09:58.292Z,97865.19
2023-02-02T10:12:43.726Z,97867.91
2023-02-02T10:15:17.885Z,97864.23
2023-02-02T10:17:48.972Z,97864.75
2023-02-02T10:20:47.729Z,97867.23
2023-02-02T10:23:22.169Z,97869.16
2023-02-02T10:25:57.534Z,97871.34
2023-02-02T10:28:41.577Z,97871.02
2023-02-02T10:31:20.202Z,97876.48
2023-02-02T10:34:02.389Z,97878.71
2023-02-02T10:36:43.281Z,97881.42
2023-02-02T10:39:24.139Z,97886.05
2023-02-02T10:41:59.679Z,97892.89
2023-02-02T10:44:43.035Z,97895.58
2023-02-02T10:47:16.871Z,97899.38
2023-02-02T10:49:43.617Z,97899.67
2023-02-02T10:52:11.239Z,97901.45
2023-02-02T10:54:54.992Z,97902.45
2023-02-02T10:57:30.847Z,97902.94
2023-02-02T11:00:02.526Z,97899.02
2023-02-02T11:02:29.350Z,97901.84
2023-02-02T11:05:11.581Z,97897.96
2023-02-02T11:07:38.293Z,97905.21
2023-02-02T11:10:05.580Z,97908.39
2023-02-02T11:12:37.600Z,97911.25
2023-02-02T11:15:06.768Z,97910.85
2023-02-02T11:17:35.194Z,97913.64
2023-02-02T11:20:02.524Z,97911.09
2023-02-02T11:22:35.500Z,97916.61
2023-02-02T11:25:07.222Z,97914.59
2023-02-02T11:27:40.040Z,97917.20
2023-02-02T11:30:28.144Z,97920.80
2023-02-02T11:32:55.918Z,97922.95
2023-02-02T11:35:26.664Z,97924.05
2023-02-02T11:37:54.696Z,97927.42
2023-02-02T11:40:30.853Z,97928.11
2023-02-02T11:43:00.731Z,97932.80
2023-02-02T11:45:35.292Z,97932.76
2023-02-02T11:48:07.208Z,97939.01
2023-02-02T11:50:35.696Z,97939.02
2023-02-02T11:53:02.933Z,97941.40
2023-02-02T11:55:32.058Z,97939.72
2023-02-02T11:58:25.204Z,97949.95
2023-02-02T12:00:56.187Z,97952.39
2023-02-02T12:03:25.916Z,97956.73
2023-02-02T12:05:53.254Z,97960.63
2023-02-02T12:08:20.614Z,97963.36
2023-02-02T12:10:56.835Z,97962.14
2023-02-02T12:13:38.867Z,97969.94
2023-02-02T12:16:19.772Z,97975.85
2023-02-02T12:18:49.879Z,97978.95
2023-02-02T12:21:24.982Z,97984.84
2023-02-02T12:24:02.683Z,97979.60
2023-02-02T12:26:33.837Z,97986.29
2023-02-02T12:29:07.371Z,97985.17
2023-02-02T12:31:55.221Z,97990.66
2023-02-02T12:34:30.208Z,97995.48
2023-02-02T12:37:15.952Z,97992.47
2023-02-02T12:39:58.933Z,98000.88
2023-02-02T12:42:41.683Z,98004.05
2023-02-02T12:45:25.643Z,98006.67
2023-02-02T12:48:28.146Z,98013.58
2023-02-02T12:51:25.469Z,98014.92
2023-02-02T12:54:34.761Z,98017.95
2023-02-02T12:57:24.872Z,98031.70
2023-02-02T13:00:08.218Z,98030.52
2023-02-02T13:02:50.926Z,98035.18
2023-02-02T13:05:44.218Z,98041.76
2023-02-02T13:08:18.721Z,98040.44
2023-02-02T13:10:52.299Z,98043.80
2023-02-02T13:13:26.239Z,98049.20
2023-02-02T13:16:01.704Z,98052.77
2023-02-02T13:18:34.607Z,98052.87
2023-02-02T13:21:06.331Z,98059.71
2023-02-02T13:23:38.047Z,98061.10
2023-02-02T13:26:07.174Z,98071.14
2023-02-02T13:28:55.385Z,98076.59
2023-02-02T13:31:30.345Z,98078.88
2023-02-02T13:34:07.510Z,98080.91
2023-02-02T13:36:39.001Z,98079.64
2023-02-02T13:39:17.289Z,98082.30
2023-02-02T13:41:45.667Z,98086.60
2023-02-02T13:44:37.496Z,98096.78
2023-02-02T13:47:13.524Z,98103.83
2023-02-02T13:49:46.135Z,98107.32
2023-02-02T13:52:31.922Z,98107.13
2023-02-02T13:55:19.143Z,98108.83
2023-02-02T13:57:57.011Z,98114.34
2023-02-02T14:00:29.507Z,98121.21
2023-02-02T14:03:03.411Z,98123.82
2023-02-02T14:05:34.326Z,98126.30
2023-02-02T14:08:07.140Z,98127.73
2023-02-02T14:10:39.715Z,98135.86
2023-02-02T14:13:29.199Z,98133.20
2023-02-02T14:15:59.154Z,98135.45
2023-02-02T14:18:48.679Z,98142.47
2023-02-02T14:21:32.199Z,98144.92
2023-02-02T14:24:03.108Z,98147.75
2023-02-02T14:26:46.680Z,98154.14
2023-02-02T14:29:31.259Z,98159.59
2023-02-02T14:31:59.167Z,98166.71
2023-02-02T14:34:30.586Z,98165.27
2023-02-02T14:37:23.963Z,98170.13
2023-02-02T14:40:06.434Z,98173.45
2023-02-02T14:43:19.351Z,98179.04
2023-02-02T14:45:49.051Z,98190.19
2023-02-02T14:48:17.663Z,98191.27
2023-02-02T14:50:50.959Z,98197.54
2023-02-02T14:53:23.523Z,98201.44
2023-02-02T14:55:55.955Z,98209.52
2023-02-02T14:58:29.859Z,98216.12
2023-02-02T15:01:03.834Z,98219.30
2023-02-02T15:03:35.412Z,98224.66
2023-02-02T15:06:08.711Z,98231.66
2023-02-02T15:08:35.609Z,98237.92
2023-02-02T15:11:25.840Z,98242.82
2023-02-02T15:14:00.868Z,98250.77
2023-02-02T15:16:31.991Z,98256.45
2023-02-02T15:19:07.168Z,98258.92
2023-02-02T15:21:38.468Z,98270.18
2023-02-02T15:24:15.665Z,98275.07
2023-02-02T15:26:44.817Z,98275.06
2023-02-02T15:29:25.619Z,98284.42
2023-02-02T15:31:55.040Z,98291.33
2023-02-02T15:34:27.259Z,98297.20
2023-02-02T15:36:58.755Z,98304.70
2023-02-02T15:39:33.843Z,98305.23
2023-02-02T15:42:20.786Z,98314.35
2023-02-02T15:44:47.657Z,98322.00
2023-02-02T15:47:19.568Z,98322.86
2023-02-02T15:49:46.551Z,98331.44
2023-02-02T15:52:17.327Z,98330.67
2023-02-02T15:54:55.261Z,98335.37
2023-02-02T15:57:27.366Z,98339.84
2023-02-02T15:59:54.841Z,98341.58
2023-02-02T16:02:29.064Z,98348.70
2023-02-02T16:04:55.802Z,98350.00
2023-02-02T16:07:30.946Z,98355.16
2023-02-02T16:10:04.636Z,98361.70
2023-02-02T16:12:31.633Z,98369.98
2023-02-02T16:14:58.498Z,98373.48
2023-02-02T16:17:31.498Z,98379.61
2023-02-02T16:20:12.939Z,98379.05
2023-02-02T16:22:40.722Z,98388.58
2023-02-02T16:25:13.323Z,98383.75
2023-02-02T16:27:46.238Z,98396.39
2023-02-02T16:30:26.748Z,98401.04
2023-02-02T16:32:53.745Z,98411.64
2023-02-02T16:35:37.240Z,98413.54
2023-02-02T16:38:23.488Z,98418.02
2023-02-02T16:41:01.987Z,98422.15
2023-02-02T16:43:30.232Z,98422.23
2023-02-02T16:46:01.342Z,98431.08
2023-02-02T16:48:30.019Z,98440.09
2023-02-02T16:51:05.033Z,98448.86
2023-02-02T16:53:32.183Z,98461.92
2023-02-02T16:55:59.117Z,98466.79
2023-02-02T16:58:27.745Z,98471.89
2023-02-02T17:01:12.276Z,98475.50
2023-02-02T17:03:48.024Z,98480.71
2023-02-02T17:06:14.767Z,98484.56
2023-02-02T17:08:41.654Z,98489.50
2023-02-02T17:11:26.216Z,98502.32
2023-02-02T17:13:54.079Z,98511.92
2023-02-02T17:16:23.974Z,98520.05
2023-02-02T17:18:51.827Z,98519.56
2023-02-02T17:21:22.866Z,98526.64
2023-02-02T17:23:54.299Z,98527.23
2023-02-02T17:26:21.582Z,98521.71
2023-02-02T17:29:00.315Z,98527.35
2023-02-02T17:31:27.199Z,98533.66
2023-02-02T17:33:54.016Z,98545.23
2023-02-02T17:36:20.898Z,98549.44
2023-02-02T17:38:47.668Z,98554.41
2023-02-02T17:41:14.833Z,98549.43
2023-02-02T17:43:42.927Z,98548.98
2023-02-02T17:46:13.486Z,98549.31
2023-02-02T17:48:40.252Z,98556.70
2023-02-02T17:51:14.339Z,98565.36
2023-02-02T17:53:41.130Z,98572.88
2023-02-02T17:56:08.048Z,98580.17
2023-02-02T17:58:34.803Z,98585.75
2023-02-02T18:01:01.710Z,98590.33
2023-02-02T18:03:34.241Z,98594.69
2023-02-02T18:06:02.155Z,98596.52
2023-02-02T18:08:30.388Z,98601.68
2023-02-02T18:10:57.921Z,98602.13
2023-02-02T18:13:25.337Z,98603.79
2023-02-02T18:15:53.763Z,98603.75
2023-02-02T18:18:20.859Z,98612.67
2023-02-02T18:20:50.455Z,98615.56
2023-02-02T18:23:18.221Z,98624.64
2023-02-02T18:25:45.521Z,98627.34
2023-02-02T18:28:16.765Z,98639.39
2023-02-02T18:30:43.938Z,98644.63
2023-02-02T18:33:12.134Z,98650.91
2023-02-02T18:35:43.773Z,98657.21
2023-02-02T18:38:11.221Z,98660.38
2023-02-02T18:40:38.739Z,98667.60
2023-02-02T18:43:05.873Z,98670.31
2023-02-02T18:45:32.709Z,98671.88
2023-02-02T18:47:59.935Z,98674.45
2023-02-02T18:50:26.750Z,98683.37
2023-02-02T18:52:53.461Z,98684.45
2023-02-02T18:55:20.454Z,98685.96
2023-02-02T18:57:47.390Z,98684.67
2023-02-02T19:00:14.552Z,98696.34
2023-02-02T19:02:41.526Z,98697.66
2023-02-02T19:05:24.257Z,98704.07
2023-02-02T19:07:54.695Z,98715.39
2023-02-02T19:10:24.039Z,98722.11
2023-02-02T19:12:58.688Z,98724.20
2023-02-02T19:15:27.142Z,98725.75
2023-02-02T19:17:55.588Z,98727.55
2023-02-02T19:20:29.406Z,98733.73
2023-02-02T19:23:07.146Z,98737.24
2023-02-02T19:25:33.948Z,98746.97
2023-02-02T19:28:18.933Z,98754.73
2023-02-02T19:30:45.895Z,98762.63
2023-02-02T19:33:15.522Z,98765.63
2023-02-02T19:35:45.951Z,98770.56
2023-02-02T19:38:14.743Z,98778.83
2023-02-02T19:40:43.230Z,98780.36
2023-02-02T19:43:12.000Z,98788.62
2023-02-02T19:45:40.473Z,98789.29
2023-02-02T19:48:17.983Z,98800.30
2023-02-02T19:50:46.017Z,98807.94
2023-02-02T19:53:20.092Z,98814.47
2023-02-02T19:55:47.449Z,98818.98
2023-02-02T19:58:19.599Z,98822.16
2023-02-02T20:00:49.402Z,98826.80
2023-02-02T20:03:20.708Z,98827.27
2023-02-02T20:05:49.746Z,98830.85
2023-02-02T20:08:24.296Z,98831.79
2023-02-02T20:10:55.053Z,98835.02
2023-02-02T20:13:30.049Z,98838.80
2023-02-02T20:16:03.555Z,98843.59
2023-02-02T20:18:40.732Z,98844.02
2023-02-02T20:21:17.962Z,98842.64
2023-02-02T20:23:46.235Z,98841.27
2023-02-02T20:26:34.508Z,98849.39
2023-02-02T20:29:14.417Z,98852.80
2023-02-02T20:31:41.471Z,98859.09
2023-02-02T20:34:29.216Z,98861.11
2023-02-02T20:37:17.190Z,98868.42
2023-02-02T20:39:51.417Z,98869.44
2023-02-02T20:42:18.392Z,98876.49
2023-02-02T20:44:45.213Z,98881.41
2023-02-02T20:47:12.563Z,98886.86
2023-02-02T20:49:39.919Z,98885.79
2023-02-02T20:52:10.974Z,98890.88
2023-02-02T20:54:39.725Z,98891.29
2023-02-02T20:57:07.033Z,98893.30
2023-02-02T20:59:33.970Z,98897.33
2023-02-02T21:02:01.092Z,98902.98
2023-02-02T21:04:28.109Z,98908.87
2023-02-02T21:06:55.516Z,98915.20
2023-02-02T21:09:22.637Z,98922.13
2023-02-02T21:11:49.354Z,98925.68
2023-02-02T21:14:16.290Z,98933.69
2023-02-02T21:16:43.260Z,98940.00
2023-02-02T21:19:10.247Z,98942.07
2023-02-02T21:21:37.258Z,98943.81
2023-02-02T21:24:04.593Z,98940.05
2023-02-02T21:26:31.528Z,98939.10
2023-02-02T21:28:58.543Z,98941.10
2023-02-02T21:31:26.384Z,98938.91
2023-02-02T21:33:54.056Z,98940.43
2023-02-02T21:36:28.042Z,98941.79
2023-02-02T21:38:59.288Z,98945.23
2023-02-02T21:41:29.669Z,98946.17
2023-02-02T21:43:58.375Z,98946.08
2023-02-02T21:46:33.589Z,98946.15
2023-02-02T21:49:01.188Z,98953.41
2023-02-02T21:51:33.993Z,98963.86
2023-02-02T21:54:16.255Z,98968.61
2023-02-02T21:56:43.348Z,98971.17
2023-02-02T21:59:18.137Z,98977.63
2023-02-02T22:01:45.312Z,98983.19
2023-02-02T22:04:21.116Z,98982.94
2023-02-02T22:06:51.713Z,98990.74
2023-02-02T22:09:20.331Z,98998.70
2023-02-02T22:11:53.384Z,99002.69
2023-02-02T22:14:42.255Z,99004.77
2023-02-02T22:17:25.884Z,99009.77
2023-02-02T22:19:56.500Z,99024.78
2023-02-02T22:22:32.152Z,99029.95
2023-02-02T22:25:06.299Z,99031.50
2023-02-02T22:27:40.458Z,99033.52
2023-02-02T22:30:29.041Z,99032.77
2023-02-02T22:32:56.185Z,99035.45
2023-02-02T22:35:22.953Z,99045.30
2023-02-02T22:37:51.488Z,99043.23
2023-02-02T22:40:22.518Z,99041.56
2023-02-02T22:42:51.987Z,99039.83
2023-02-02T22:45:19.255Z,99039.85
2023-02-02T22:47:47.869Z,99042.05
2023-02-02T22:50:17.029Z,99040.71
2023-02-02T22:52:44.542Z,99041.70
2023-02-02T22:55:12.407Z,99040.14
2023-02-02T22:57:39.803Z,99043.74
2023-02-02T23:00:12.096Z,99049.92
2023-02-02T23:02:39.639Z,99053.95
2023-02-02T23:05:08.409Z,99056.89
2023-02-02T23:07:35.251Z,99064.75
2023-02-02T23:10:02.465Z,99066.80
2023-02-02T23:12:29.451Z,99062.81
2023-02-02T23:14:56.158Z,99059.93
2023-02-02T23:17:22.917Z,99059.41
2023-02-02T23:19:49.822Z,99067.83
2023-02-02T23:22:16.625Z,99067.50
2023-02-02T23:24:44.682Z,99077.75
2023-02-02T23:29:57.693Z,99087.02
2023-02-02T23:32:24.781Z,99083.66
2023-02-02T23:34:51.544Z,99092.45
2023-02-02T23:37:18.682Z,99087.69
2023-02-02T23:39:45.526Z,99092.02
2023-02-02T23:42:12.305Z,99095.08
2023-02-02T23:44:39.298Z,99094.86
2023-02-02T23:47:06.272Z,99090.66
2023-02-02T23:49:33.592Z,99088.74
2023-02-02T23:52:01.017Z,99096.69
2023-02-02T23:54:28.981Z,99097.23
2023-02-02T23:56:56.943Z,99105.88
2023-02-02T23:59:23.973Z,99117.73
